createdAt,value
2018-06-16T00:00:21.693Z,4.13
2018-06-16T00:02:50.892Z,3.73
2018-06-16T00:05:19.889Z,3.50
2018-06-16T00:07:49.147Z,3.83
2018-06-16T00:10:18.403Z,3.50
2018-06-16T00:12:46.896Z,4.27
2018-06-16T00:15:15.396Z,3.53
2018-06-16T00:17:44.033Z,3.43
2018-06-16T00:20:12.540Z,3.50
2018-06-16T00:22:41.036Z,3.90
2018-06-16T00:25:10.191Z,3.57
2018-06-16T00:27:38.739Z,3.90
2018-06-16T00:30:07.220Z,3.63
2018-06-16T00:32:35.704Z,3.37
2018-06-16T00:35:04.332Z,3.87
2018-06-16T00:37:32.829Z,3.97
2018-06-16T00:40:01.394Z,3.73
2018-06-16T00:42:29.945Z,3.73
2018-06-16T00:44:58.433Z,3.67
2018-06-16T00:47:26.941Z,3.47
2018-06-16T00:49:55.993Z,3.60
2018-06-16T00:52:24.518Z,3.93
2018-06-16T00:54:53.011Z,4.20
2018-06-16T00:57:26.739Z,3.50
2018-06-16T00:59:55.236Z,4.00
2018-06-16T01:02:24.472Z,4.30
2018-06-16T01:04:53.460Z,3.83
2018-06-16T01:07:22.528Z,3.50
2018-06-16T01:09:51.750Z,4.47
2018-06-16T01:12:20.972Z,3.83
2018-06-16T01:14:50.197Z,4.07
2018-06-16T01:17:19.192Z,4.07
2018-06-16T01:19:48.556Z,3.47
2018-06-16T01:22:17.127Z,3.60
2018-06-16T01:24:45.676Z,4.40
2018-06-16T01:27:14.249Z,3.80
2018-06-16T01:29:43.084Z,4.27
2018-06-16T01:32:11.608Z,4.03
2018-06-16T01:34:40.870Z,3.83
2018-06-16T01:37:10.115Z,3.87
2018-06-16T01:39:39.348Z,4.63
2018-06-16T01:42:08.354Z,4.23
2018-06-16T01:44:37.589Z,4.33
2018-06-16T01:47:07.030Z,4.00
2018-06-16T01:49:36.229Z,4.07
2018-06-16T01:52:05.436Z,4.80
2018-06-16T01:54:34.707Z,4.17
2018-06-16T01:57:03.925Z,4.60
2018-06-16T01:59:33.133Z,4.67
2018-06-16T02:02:02.144Z,4.50
2018-06-16T02:04:31.394Z,4.63
2018-06-16T02:07:00.616Z,5.10
2018-06-16T02:09:29.836Z,5.10
2018-06-16T02:11:58.832Z,5.33
2018-06-16T02:14:27.924Z,5.63
2018-06-16T02:16:57.126Z,5.80
2018-06-16T02:19:26.347Z,5.30
2018-06-16T02:21:55.603Z,5.67
2018-06-16T02:24:24.571Z,6.00
2018-06-16T02:26:54.008Z,6.27
2018-06-16T02:29:23.256Z,6.17
2018-06-16T02:31:52.249Z,6.70
2018-06-16T02:34:21.493Z,6.13
2018-06-16T02:36:50.722Z,6.20
2018-06-16T02:39:19.961Z,6.30
2018-06-16T02:41:48.956Z,6.63
2018-06-16T02:44:18.287Z,6.40
2018-06-16T02:46:47.453Z,6.67
2018-06-16T02:49:16.697Z,6.43
2018-06-16T02:51:45.682Z,6.20
2018-06-16T02:54:14.694Z,6.00
2018-06-16T02:56:43.776Z,6.50
2018-06-16T02:59:13.054Z,6.60
2018-06-16T03:01:42.413Z,6.40
2018-06-16T03:04:11.443Z,6.30
2018-06-16T03:06:40.444Z,5.70
2018-06-16T03:09:10.632Z,5.50
2018-06-16T03:11:39.912Z,5.80
2018-06-16T03:14:09.136Z,6.10
2018-06-16T03:16:38.366Z,5.27
2018-06-16T03:19:07.588Z,5.43
2018-06-16T03:21:36.616Z,5.30
2018-06-16T03:24:05.641Z,5.80
2018-06-16T03:26:34.887Z,5.17
2018-06-16T03:29:04.133Z,4.93
2018-06-16T03:31:33.376Z,4.53
2018-06-16T03:34:02.603Z,5.10
2018-06-16T03:36:31.822Z,4.80
2018-06-16T03:39:01.025Z,4.90
2018-06-16T03:41:30.247Z,4.83
2018-06-16T03:43:59.462Z,4.90
2018-06-16T03:46:28.711Z,4.90
2018-06-16T03:48:57.693Z,4.90
2018-06-16T03:51:26.945Z,5.67
2018-06-16T03:53:56.177Z,5.00
2018-06-16T03:56:25.385Z,5.10
2018-06-16T03:58:54.389Z,4.33
2018-06-16T04:01:23.825Z,4.80
2018-06-16T04:03:53.120Z,4.60
2018-06-16T04:06:22.081Z,4.37
2018-06-16T04:08:51.140Z,5.00
2018-06-16T04:11:20.144Z,5.10
2018-06-16T04:13:49.395Z,4.30
2018-06-16T04:16:18.618Z,4.17
2018-06-16T04:18:47.868Z,4.80
2018-06-16T04:21:17.097Z,4.57
2018-06-16T04:23:46.300Z,4.27
2018-06-16T04:26:15.523Z,4.43
2018-06-16T04:28:44.513Z,4.37
2018-06-16T04:31:13.804Z,4.23
2018-06-16T04:33:43.005Z,4.50
2018-06-16T04:36:12.552Z,4.13
2018-06-16T04:38:41.849Z,4.57
2018-06-16T04:41:11.082Z,4.33
2018-06-16T04:43:40.073Z,4.57
2018-06-16T04:46:09.325Z,4.37
2018-06-16T04:48:38.552Z,5.00
2018-06-16T04:51:07.789Z,4.13
2018-06-16T04:53:36.775Z,3.77
2018-06-16T04:56:06.038Z,4.17
2018-06-16T04:58:35.298Z,3.60
2018-06-16T05:01:04.494Z,3.50
2018-06-16T05:03:33.805Z,3.33
2018-06-16T05:06:02.973Z,3.67
2018-06-16T05:08:32.273Z,3.60
2018-06-16T05:11:01.416Z,3.17
2018-06-16T05:13:30.639Z,3.90
2018-06-16T05:15:59.615Z,3.60
2018-06-16T05:18:28.673Z,3.37
2018-06-16T05:20:57.913Z,3.90
2018-06-16T05:23:27.137Z,3.20
2018-06-16T05:25:56.363Z,3.30
2018-06-16T05:28:25.363Z,3.40
2018-06-16T05:30:54.433Z,3.37
2018-06-16T05:33:23.660Z,3.10
2018-06-16T05:35:52.893Z,3.37
2018-06-16T05:38:22.133Z,3.90
2018-06-16T05:40:51.375Z,3.73
2018-06-16T05:43:20.560Z,4.43
2018-06-16T05:45:49.808Z,4.00
2018-06-16T05:48:19.997Z,3.63
2018-06-16T05:50:49.228Z,3.40
2018-06-16T05:53:18.228Z,3.03
2018-06-16T05:55:47.506Z,3.37
2018-06-16T05:58:16.494Z,3.13
2018-06-16T06:00:45.734Z,2.97
2018-06-16T06:03:15.000Z,3.37
2018-06-16T06:05:44.220Z,3.47
2018-06-16T06:08:13.212Z,2.80
2018-06-16T06:10:42.501Z,3.20
2018-06-16T06:13:12.047Z,2.97
2018-06-16T06:15:41.087Z,3.23
2018-06-16T06:18:09.849Z,3.37
2018-06-16T06:20:38.454Z,3.33
2018-06-16T06:23:07.171Z,4.53
2018-06-16T06:25:35.884Z,3.50
2018-06-16T06:28:05.295Z,3.17
2018-06-16T06:30:34.544Z,3.10
2018-06-16T06:33:03.080Z,2.77
2018-06-16T06:35:31.638Z,2.97
2018-06-16T06:38:00.252Z,3.20
2018-06-16T06:40:28.794Z,3.10
2018-06-16T06:42:57.349Z,2.90
2018-06-16T06:45:25.937Z,3.27
2018-06-16T06:47:54.524Z,3.40
2018-06-16T06:50:23.088Z,3.20
2018-06-16T06:52:52.093Z,3.10
2018-06-16T06:55:20.639Z,2.77
2018-06-16T06:57:49.176Z,3.07
2018-06-16T07:00:17.774Z,3.53
2018-06-16T07:02:46.382Z,3.67
2018-06-16T07:05:14.971Z,3.17
2018-06-16T07:07:43.548Z,3.00
2018-06-16T07:10:12.119Z,2.83
2018-06-16T07:12:41.372Z,3.30
2018-06-16T07:15:10.362Z,3.30
2018-06-16T07:17:40.091Z,3.37
2018-06-16T07:20:09.417Z,3.27
2018-06-16T07:22:38.633Z,3.70
2018-06-16T07:25:07.788Z,3.57
2018-06-16T07:27:37.089Z,3.10
2018-06-16T07:30:06.453Z,3.20
2018-06-16T07:32:34.969Z,3.40
2018-06-16T07:35:03.634Z,4.60
2018-06-16T07:37:32.151Z,3.80
2018-06-16T07:40:00.691Z,3.70
2018-06-16T07:42:29.226Z,3.17
2018-06-16T07:44:58.329Z,3.83
2018-06-16T07:47:27.340Z,3.53
2018-06-16T07:49:56.605Z,3.57
2018-06-16T07:52:25.324Z,4.13
2018-06-16T07:54:54.165Z,3.67
2018-06-16T07:57:22.668Z,3.63
2018-06-16T07:59:51.157Z,4.27
2018-06-16T08:02:19.874Z,3.50
2018-06-16T08:04:48.417Z,3.80
2018-06-16T08:07:17.021Z,3.50
2018-06-16T08:09:45.539Z,3.73
2018-06-16T08:12:14.077Z,3.30
2018-06-16T08:14:42.608Z,3.63
2018-06-16T08:17:11.128Z,3.60
2018-06-16T08:19:39.647Z,3.90
2018-06-16T08:22:08.218Z,3.67
2018-06-16T08:24:36.802Z,3.67
2018-06-16T08:27:05.318Z,3.87
2018-06-16T08:29:33.854Z,3.53
2018-06-16T08:32:02.355Z,3.80
2018-06-16T08:34:30.883Z,4.17
2018-06-16T08:36:59.406Z,3.57
2018-06-16T08:39:28.075Z,3.67
2018-06-16T08:41:56.576Z,3.93
2018-06-16T08:44:25.076Z,3.30
2018-06-16T08:46:53.569Z,3.40
2018-06-16T08:49:22.084Z,4.63
2018-06-16T08:51:50.591Z,4.23
2018-06-16T08:54:19.168Z,7.20
2018-06-16T08:56:47.668Z,3.40
2018-06-16T08:59:16.198Z,3.70
2018-06-16T09:01:44.694Z,3.37
2018-06-16T09:04:14.400Z,3.50
2018-06-16T09:06:42.979Z,3.37
2018-06-16T09:09:11.497Z,3.30
2018-06-16T09:11:40.045Z,3.47
2018-06-16T09:14:08.559Z,3.20
2018-06-16T09:16:37.117Z,3.13
2018-06-16T09:19:05.696Z,3.77
2018-06-16T09:21:34.229Z,2.90
2018-06-16T09:24:02.742Z,3.00
2018-06-16T09:26:31.417Z,2.57
2018-06-16T09:28:59.956Z,2.90
2018-06-16T09:31:28.493Z,3.13
2018-06-16T09:33:57.337Z,2.60
2018-06-16T09:36:25.891Z,2.77
2018-06-16T09:38:54.400Z,2.60
2018-06-16T09:41:22.977Z,3.20
2018-06-16T09:43:51.498Z,2.80
2018-06-16T09:46:20.044Z,3.00
2018-06-16T09:48:48.577Z,2.47
2018-06-16T09:51:17.135Z,2.60
2018-06-16T09:53:45.664Z,2.77
2018-06-16T09:56:14.166Z,2.50
2018-06-16T09:58:43.102Z,2.20
2018-06-16T10:01:11.643Z,2.50
2018-06-16T10:03:40.177Z,4.47
2018-06-16T10:06:09.413Z,2.43
2018-06-16T10:08:38.559Z,2.80
2018-06-16T10:11:07.090Z,2.70
2018-06-16T10:13:36.341Z,2.60
2018-06-16T10:16:05.036Z,2.43
2018-06-16T10:18:33.618Z,2.23
2018-06-16T10:21:02.149Z,4.60
2018-06-16T10:23:30.789Z,2.63
2018-06-16T10:25:59.490Z,2.50
2018-06-16T10:28:28.023Z,2.10
2018-06-16T10:30:56.584Z,3.27
2018-06-16T10:33:25.591Z,2.60
2018-06-16T10:35:54.166Z,2.90
2018-06-16T10:38:23.495Z,2.87
2018-06-16T10:40:52.700Z,2.90
2018-06-16T10:43:21.242Z,2.63
2018-06-16T10:45:49.792Z,2.33
2018-06-16T10:48:18.943Z,2.73
2018-06-16T10:50:48.012Z,2.47
2018-06-16T10:53:17.253Z,2.87
2018-06-16T10:55:46.484Z,2.43
2018-06-16T10:58:15.483Z,2.70
2018-06-16T11:00:43.983Z,2.60
2018-06-16T11:03:12.644Z,2.80
2018-06-16T11:05:41.366Z,2.27
2018-06-16T11:08:09.880Z,2.33
2018-06-16T11:10:38.408Z,2.57
2018-06-16T11:13:06.971Z,2.53
2018-06-16T11:15:35.490Z,2.20
2018-06-16T11:18:04.052Z,2.20
2018-06-16T11:20:32.586Z,3.57
2018-06-16T11:23:01.099Z,2.53
2018-06-16T11:25:29.728Z,2.37
2018-06-16T11:27:58.976Z,2.47
2018-06-16T11:30:28.009Z,2.43
2018-06-16T11:32:56.977Z,3.33
2018-06-16T11:35:26.054Z,2.50
2018-06-16T11:37:54.744Z,2.87
2018-06-16T11:40:23.367Z,2.63
2018-06-16T11:42:51.928Z,2.77
2018-06-16T11:45:20.472Z,3.07
2018-06-16T11:47:49.226Z,3.07
2018-06-16T11:50:18.708Z,3.63
2018-06-16T11:52:47.979Z,4.20
2018-06-16T11:55:17.285Z,6.57
2018-06-16T11:57:46.037Z,4.20
2018-06-16T12:00:14.578Z,3.47
2018-06-16T12:02:43.115Z,3.07
2018-06-16T12:05:12.387Z,2.80
2018-06-16T12:07:41.210Z,2.67
2018-06-16T12:10:09.750Z,3.00
2018-06-16T12:12:38.710Z,2.67
2018-06-16T12:15:07.963Z,2.70
2018-06-16T12:17:37.197Z,2.30
2018-06-16T12:20:06.401Z,2.70
2018-06-16T12:22:34.968Z,2.23
2018-06-16T12:25:03.540Z,2.57
2018-06-16T12:27:32.114Z,2.37
2018-06-16T12:30:00.722Z,2.67
2018-06-16T12:32:30.207Z,2.30
2018-06-16T12:34:58.763Z,2.70
2018-06-16T12:37:27.338Z,2.63
2018-06-16T12:39:56.009Z,3.20
2018-06-16T12:42:24.616Z,2.10
2018-06-16T12:44:53.226Z,2.50
2018-06-16T12:47:21.725Z,2.10
2018-06-16T12:49:50.446Z,2.87
2018-06-16T12:52:19.672Z,2.27
2018-06-16T12:54:48.532Z,2.27
2018-06-16T12:57:17.320Z,2.03
2018-06-16T12:59:46.117Z,1.80
2018-06-16T13:02:14.655Z,2.20
2018-06-16T13:04:43.743Z,2.30
2018-06-16T13:07:12.673Z,2.43
2018-06-16T13:09:41.263Z,2.00
2018-06-16T13:14:45.305Z,2.10
2018-06-16T13:17:13.825Z,1.90
2018-06-16T13:19:42.360Z,1.60
2018-06-16T13:22:10.934Z,2.20
2018-06-16T13:24:39.638Z,1.90
2018-06-16T13:27:08.876Z,2.10
2018-06-16T13:29:38.052Z,1.77
2018-06-16T13:32:07.493Z,1.83
2018-06-16T13:34:36.195Z,1.90
2018-06-16T13:37:04.976Z,2.17
2018-06-16T13:39:34.269Z,1.80
2018-06-16T13:42:02.800Z,2.10
2018-06-16T13:44:32.093Z,1.97
2018-06-16T13:47:01.307Z,1.90
2018-06-16T13:49:30.555Z,2.27
2018-06-16T13:51:59.500Z,1.87
2018-06-16T13:54:28.053Z,2.13
2018-06-16T13:56:56.661Z,1.83
2018-06-16T13:59:25.595Z,1.90
2018-06-16T14:01:54.156Z,2.07
2018-06-16T14:04:22.732Z,2.23
2018-06-16T14:06:51.431Z,1.70
2018-06-16T14:09:19.972Z,1.70
2018-06-16T14:11:48.501Z,1.73
2018-06-16T14:14:17.088Z,2.00
2018-06-16T14:16:45.697Z,1.90
2018-06-16T14:19:14.215Z,1.60
2018-06-16T14:21:42.788Z,1.87
2018-06-16T14:24:11.821Z,1.40
2018-06-16T14:26:40.332Z,1.47
2018-06-16T14:29:08.927Z,1.80
2018-06-16T14:31:38.068Z,1.80
2018-06-16T14:34:06.859Z,1.50
2018-06-16T14:36:36.273Z,1.67
2018-06-16T14:39:06.503Z,1.67
2018-06-16T14:41:35.059Z,1.97
2018-06-16T14:44:03.688Z,1.80
2018-06-16T14:46:32.200Z,1.70
2018-06-16T14:49:01.314Z,1.70
2018-06-16T14:51:29.888Z,1.53
2018-06-16T14:53:58.412Z,1.47
2018-06-16T14:56:27.154Z,1.50
2018-06-16T14:58:55.661Z,1.37
2018-06-16T15:01:24.185Z,1.70
2018-06-16T15:03:52.685Z,1.70
2018-06-16T15:06:21.191Z,1.60
2018-06-16T15:08:50.396Z,1.83
2018-06-16T15:11:19.607Z,1.90
2018-06-16T15:13:48.668Z,1.90
2018-06-16T15:16:17.185Z,1.70
2018-06-16T15:18:46.321Z,1.80
2018-06-16T15:21:15.867Z,2.00
2018-06-16T15:23:44.956Z,2.00
2018-06-16T15:26:13.446Z,1.80
2018-06-16T15:28:41.952Z,1.63
2018-06-16T15:31:11.065Z,2.10
2018-06-16T15:33:40.306Z,1.70
2018-06-16T15:36:09.321Z,2.23
2018-06-16T15:38:38.342Z,2.10
2018-06-16T15:41:06.900Z,1.90
2018-06-16T15:43:35.545Z,1.60
2018-06-16T15:46:04.051Z,2.33
2018-06-16T15:48:33.292Z,1.83
2018-06-16T15:51:02.535Z,1.90
2018-06-16T15:53:31.809Z,1.50
2018-06-16T15:56:00.968Z,1.50
2018-06-16T15:58:30.196Z,1.70
2018-06-16T16:00:59.434Z,1.70
2018-06-16T16:03:28.667Z,1.60
2018-06-16T16:05:57.167Z,1.50
2018-06-16T16:08:25.685Z,1.20
2018-06-16T16:10:54.169Z,1.70
2018-06-16T16:13:22.651Z,1.30
2018-06-16T16:15:51.142Z,3.10
2018-06-16T16:18:20.286Z,1.70
2018-06-16T16:20:49.530Z,1.67
2018-06-16T16:23:18.724Z,1.47
2018-06-16T16:25:47.793Z,1.97
2018-06-16T16:28:16.989Z,1.67
2018-06-16T16:30:46.214Z,1.57
2018-06-16T16:33:15.437Z,1.40
2018-06-16T16:35:44.699Z,1.50
2018-06-16T16:38:13.889Z,1.40
2018-06-16T16:40:42.410Z,1.80
2018-06-16T16:43:10.905Z,1.23
2018-06-16T16:45:39.581Z,1.60
2018-06-16T16:48:08.107Z,1.73
2018-06-16T16:50:36.640Z,1.90
2018-06-16T16:53:05.222Z,2.17
2018-06-16T16:55:34.080Z,1.50
2018-06-16T16:58:02.680Z,1.50
2018-06-16T17:00:31.302Z,1.40
2018-06-16T17:02:59.806Z,1.53
2018-06-16T17:05:28.312Z,1.43
2018-06-16T17:07:56.933Z,1.17
2018-06-16T17:10:25.448Z,1.60
2018-06-16T17:12:53.937Z,1.50
2018-06-16T17:15:22.418Z,1.30
2018-06-16T17:17:50.926Z,1.80
2018-06-16T17:20:19.424Z,1.63
2018-06-16T17:22:47.919Z,1.40
2018-06-16T17:25:16.400Z,2.07
2018-06-16T17:27:44.887Z,2.40
2018-06-16T17:30:13.424Z,2.23
2018-06-16T17:32:41.907Z,1.90
2018-06-16T17:35:10.441Z,1.60
2018-06-16T17:37:38.983Z,2.10
2018-06-16T17:40:07.944Z,1.77
2018-06-16T17:42:36.448Z,1.70
2018-06-16T17:45:05.034Z,1.23
2018-06-16T17:47:33.577Z,1.60
2018-06-16T17:50:02.129Z,2.00
2018-06-16T17:52:30.840Z,1.53
2018-06-16T17:54:59.350Z,1.80
2018-06-16T17:57:27.833Z,1.90
2018-06-16T17:59:56.328Z,2.03
2018-06-16T18:02:24.882Z,2.03
2018-06-16T18:04:53.448Z,2.07
2018-06-16T18:07:21.925Z,1.60
2018-06-16T18:09:50.435Z,1.50
2018-06-16T18:12:18.958Z,1.43
2018-06-16T18:14:47.453Z,1.63
2018-06-16T18:17:15.949Z,1.87
2018-06-16T18:19:44.441Z,1.60
2018-06-16T18:22:12.948Z,1.50
2018-06-16T18:24:41.439Z,1.60
2018-06-16T18:27:09.960Z,1.70
2018-06-16T18:29:38.436Z,2.10
2018-06-16T18:32:06.992Z,1.70
2018-06-16T18:34:35.907Z,1.70
2018-06-16T18:37:04.407Z,1.87
2018-06-16T18:39:32.892Z,1.60
2018-06-16T18:42:01.384Z,1.70
2018-06-16T18:44:29.912Z,1.83
2018-06-16T18:46:58.424Z,1.60
2018-06-16T18:49:26.988Z,1.60
2018-06-16T18:51:55.476Z,2.20
2018-06-16T18:54:23.961Z,2.10
2018-06-16T18:56:52.469Z,2.10
2018-06-16T18:59:20.954Z,2.10
2018-06-16T19:01:49.483Z,2.30
2018-06-16T19:04:18.319Z,2.53
2018-06-16T19:06:47.126Z,2.30
2018-06-16T19:09:15.633Z,2.27
2018-06-16T19:11:44.321Z,1.63
2018-06-16T19:14:12.998Z,2.10
2018-06-16T19:16:41.581Z,2.60
2018-06-16T19:19:10.058Z,2.57
2018-06-16T19:21:38.551Z,2.97
2018-06-16T19:24:07.080Z,2.23
2018-06-16T19:26:35.807Z,2.37
2018-06-16T19:29:04.337Z,2.50
2018-06-16T19:31:32.875Z,2.83
2018-06-16T19:34:01.375Z,2.60
2018-06-16T19:36:29.904Z,2.30
2018-06-16T19:38:58.441Z,2.23
2018-06-16T19:41:26.953Z,2.10
2018-06-16T19:43:55.456Z,2.20
2018-06-16T19:46:24.013Z,2.30
2018-06-16T19:48:52.517Z,2.60
2018-06-16T19:51:21.169Z,2.30
2018-06-16T19:53:49.663Z,1.83
2018-06-16T19:56:18.911Z,2.03
2018-06-16T19:58:48.152Z,2.57
2018-06-16T20:01:16.651Z,2.80
2018-06-16T20:03:45.139Z,1.90
2018-06-16T20:06:14.450Z,3.10
2018-06-16T20:08:43.448Z,3.53
2018-06-16T20:11:12.913Z,3.37
2018-06-16T20:13:42.112Z,2.70
2018-06-16T20:16:10.637Z,2.50
2018-06-16T20:18:39.128Z,2.40
2018-06-16T20:21:07.661Z,2.30
2018-06-16T20:23:36.396Z,2.40
2018-06-16T20:26:04.891Z,2.10
2018-06-16T20:28:33.398Z,2.77
2018-06-16T20:31:01.891Z,2.60
2018-06-16T20:33:30.411Z,2.00
2018-06-16T20:35:58.919Z,2.13
2018-06-16T20:38:27.454Z,1.90
2018-06-16T20:40:55.952Z,2.27
2018-06-16T20:43:24.491Z,3.50
2018-06-16T20:45:53.617Z,3.80
2018-06-16T20:48:22.849Z,3.80
2018-06-16T20:50:51.332Z,4.00
2018-06-16T20:53:19.891Z,4.20
2018-06-16T20:55:48.397Z,4.13
2018-06-16T20:58:16.898Z,4.27
2018-06-16T21:00:45.421Z,3.70
2018-06-16T21:03:13.929Z,3.10
2018-06-16T21:05:42.445Z,3.10
2018-06-16T21:08:11.512Z,2.10
2018-06-16T21:10:40.525Z,2.20
2018-06-16T21:13:09.845Z,2.67
2018-06-16T21:15:39.547Z,2.10
2018-06-16T21:18:08.072Z,2.27
2018-06-16T21:20:36.628Z,2.57
2018-06-16T21:23:05.224Z,1.80
2018-06-16T21:25:33.842Z,1.80
2018-06-16T21:28:02.530Z,1.70
2018-06-16T21:30:31.248Z,1.50
2018-06-16T21:32:59.990Z,2.13
2018-06-16T21:35:28.496Z,1.97
2018-06-16T21:37:57.002Z,2.27
2018-06-16T21:40:25.516Z,2.33
2018-06-16T21:42:54.023Z,2.23
2018-06-16T21:45:22.609Z,1.40
2018-06-16T21:47:51.747Z,1.50
2018-06-16T21:50:20.932Z,1.73
2018-06-16T21:52:50.137Z,1.40
2018-06-16T21:55:19.373Z,1.67
2018-06-16T21:57:47.869Z,1.43
2018-06-16T22:00:16.348Z,1.53
2018-06-16T22:02:45.471Z,1.40
2018-06-16T22:05:14.473Z,1.40
2018-06-16T22:07:43.756Z,1.47
2018-06-16T22:10:12.757Z,1.27
2018-06-16T22:12:41.981Z,1.40
2018-06-16T22:15:11.231Z,1.70
2018-06-16T22:17:40.392Z,1.70
2018-06-16T22:20:09.980Z,1.60
2018-06-16T22:22:39.293Z,1.53
2018-06-16T22:25:07.772Z,1.30
2018-06-16T22:27:36.269Z,1.53
2018-06-16T22:30:04.815Z,1.50
2018-06-16T22:32:33.359Z,1.33
2018-06-16T22:35:01.848Z,1.60
2018-06-16T22:37:30.386Z,1.23
2018-06-16T22:39:58.885Z,1.83
2018-06-16T22:42:27.368Z,1.63
2018-06-16T22:44:56.181Z,1.63
2018-06-16T22:47:24.660Z,1.47
2018-06-16T22:49:53.145Z,1.60
2018-06-16T22:52:21.773Z,1.60
2018-06-16T22:54:50.260Z,1.47
2018-06-16T22:57:18.978Z,1.50
2018-06-16T22:59:48.259Z,1.47
2018-06-16T23:02:16.753Z,1.33
2018-06-16T23:04:45.278Z,1.40
2018-06-16T23:07:13.779Z,1.47
2018-06-16T23:09:42.271Z,1.50
2018-06-16T23:12:10.820Z,1.60
2018-06-16T23:14:39.341Z,1.90
2018-06-16T23:17:07.845Z,1.87
2018-06-16T23:19:36.479Z,1.77
2018-06-16T23:22:05.762Z,1.70
2018-06-16T23:24:35.072Z,1.67
2018-06-16T23:27:04.239Z,1.63
2018-06-16T23:29:33.219Z,1.87
2018-06-16T23:32:02.546Z,1.50
2018-06-16T23:34:31.114Z,1.63
2018-06-16T23:36:59.666Z,1.90
2018-06-16T23:39:28.173Z,3.23
2018-06-16T23:41:56.784Z,1.80
2018-06-16T23:44:25.293Z,1.90
2018-06-16T23:46:53.884Z,1.70
2018-06-16T23:49:22.385Z,1.83
2018-06-16T23:51:50.889Z,1.90
2018-06-16T23:54:19.378Z,1.87
2018-06-16T23:56:47.909Z,2.03
2018-06-16T23:59:16.396Z,1.80
